createdAt,value
2023-01-17T00:01:40.184Z,6.50
2023-01-17T00:08:04.307Z,6.39
2023-01-17T00:14:15.104Z,6.40
2023-01-17T00:20:48.035Z,6.63
2023-01-17T00:27:14.232Z,7.00
2023-01-17T00:33:37.372Z,7.01
2023-01-17T00:39:40.574Z,7.11
2023-01-17T00:46:05.545Z,6.88
2023-01-17T00:52:35.971Z,6.78
2023-01-17T00:59:09.411Z,6.60
2023-01-17T01:05:42.639Z,6.92
2023-01-17T01:12:07.115Z,6.82
2023-01-17T01:18:36.027Z,6.67
2023-01-17T01:25:06.721Z,6.77
2023-01-17T01:31:39.165Z,6.33
2023-01-17T01:37:44.706Z,6.35
2023-01-17T01:43:54.026Z,6.07
2023-01-17T01:49:58.053Z,5.84
2023-01-17T01:56:01.591Z,5.89
2023-01-17T02:02:07.265Z,5.58
2023-01-17T02:08:34.563Z,5.54
2023-01-17T02:14:37.437Z,5.64
2023-01-17T02:20:52.297Z,5.79
2023-01-17T02:27:10.332Z,5.89
2023-01-17T02:33:43.606Z,5.82
2023-01-17T02:39:57.722Z,5.73
2023-01-17T02:46:04.044Z,5.57
2023-01-17T02:52:18.755Z,5.35
2023-01-17T02:58:49.227Z,5.24
2023-01-17T03:05:07.924Z,5.05
2023-01-17T03:11:31.931Z,5.03
2023-01-17T03:17:35.001Z,4.95
2023-01-17T03:23:45.953Z,4.87
2023-01-17T03:29:51.276Z,4.73
2023-01-17T03:35:57.971Z,4.63
2023-01-17T03:42:06.241Z,4.70
2023-01-17T03:48:09.161Z,4.58
2023-01-17T03:54:14.758Z,4.51
2023-01-17T04:00:20.591Z,4.28
2023-01-17T04:06:23.619Z,4.08
2023-01-17T04:12:41.562Z,3.82
2023-01-17T04:18:48.193Z,3.67
2023-01-17T04:25:07.155Z,3.72
2023-01-17T04:31:31.584Z,3.92
2023-01-17T04:37:37.790Z,4.09
2023-01-17T04:43:43.141Z,4.25
2023-01-17T04:50:26.844Z,4.48
2023-01-17T04:56:49.061Z,4.58
2023-01-17T05:03:02.750Z,4.71
2023-01-17T05:09:18.966Z,4.85
2023-01-17T05:15:30.379Z,4.97
2023-01-17T05:21:47.962Z,5.06
2023-01-17T05:27:50.996Z,5.19
2023-01-17T05:34:14.480Z,5.29
2023-01-17T05:40:29.300Z,5.26
2023-01-17T05:46:42.755Z,5.39
2023-01-17T05:52:53.172Z,5.27
2023-01-17T05:58:56.238Z,5.35
2023-01-17T06:05:03.619Z,5.19
2023-01-17T06:11:06.817Z,5.16
2023-01-17T06:17:38.599Z,5.17
2023-01-17T06:23:43.854Z,5.14
2023-01-17T06:29:46.702Z,5.13
2023-01-17T06:35:53.065Z,5.31
2023-01-17T06:42:21.005Z,5.48
2023-01-17T06:48:23.831Z,5.49
2023-01-17T06:54:27.074Z,5.55
2023-01-17T07:00:31.570Z,5.73
2023-01-17T07:06:36.522Z,5.86
2023-01-17T07:12:43.976Z,5.96
2023-01-17T07:18:51.294Z,6.10
2023-01-17T07:24:58.618Z,6.43
2023-01-17T07:31:07.187Z,6.38
2023-01-17T07:37:10.161Z,6.56
2023-01-17T07:43:16.639Z,6.56
2023-01-17T07:49:19.453Z,6.64
2023-01-17T07:55:22.831Z,6.57
2023-01-17T08:01:26.033Z,6.72
2023-01-17T08:07:29.819Z,6.87
2023-01-17T08:13:33.021Z,6.88
2023-01-17T08:19:36.187Z,6.99
2023-01-17T08:25:39.449Z,7.23
2023-01-17T08:31:44.763Z,7.25
2023-01-17T08:37:48.693Z,7.41
2023-01-17T08:43:52.206Z,7.68
2023-01-17T08:49:54.951Z,7.80
2023-01-17T08:56:01.857Z,7.91
2023-01-17T09:02:14.839Z,8.03
2023-01-17T09:08:18.363Z,8.06
2023-01-17T09:14:21.182Z,8.08
2023-01-17T09:20:25.193Z,8.27
2023-01-17T09:26:29.657Z,8.50
2023-01-17T09:32:32.382Z,8.70
2023-01-17T09:38:36.855Z,8.66
2023-01-17T09:44:43.231Z,9.06
2023-01-17T09:51:10.605Z,9.67
2023-01-17T09:57:38.213Z,9.92
2023-01-17T10:03:57.961Z,10.18
2023-01-17T10:10:39.373Z,10.34
2023-01-17T10:16:56.903Z,10.54
2023-01-17T10:23:28.024Z,10.57
2023-01-17T10:29:33.387Z,10.44
2023-01-17T10:35:38.122Z,10.27
2023-01-17T10:41:44.171Z,10.34
2023-01-17T10:47:51.810Z,10.37
2023-01-17T10:54:07.775Z,10.13
2023-01-17T11:00:29.026Z,10.01
2023-01-17T11:06:33.163Z,10.21
2023-01-17T11:12:41.206Z,10.27
2023-01-17T11:18:44.121Z,10.39
2023-01-17T11:24:53.577Z,10.30
2023-01-17T11:30:58.694Z,10.29
2023-01-17T11:37:18.899Z,10.26
2023-01-17T11:43:25.743Z,10.20
2023-01-17T11:49:29.336Z,10.19
2023-01-17T11:55:32.208Z,10.14
2023-01-17T12:01:49.185Z,10.16
2023-01-17T12:08:10.369Z,10.19
2023-01-17T12:14:30.392Z,10.22
2023-01-17T12:20:33.332Z,10.24
2023-01-17T12:26:41.949Z,10.18
2023-01-17T12:33:05.998Z,10.36
2023-01-17T12:39:12.409Z,10.32
2023-01-17T12:45:20.332Z,10.34
2023-01-17T12:51:37.708Z,10.44
2023-01-17T12:57:47.896Z,10.39
2023-01-17T13:04:23.204Z,10.41
2023-01-17T13:10:41.011Z,10.44
2023-01-17T13:17:04.995Z,10.50
2023-01-17T13:23:29.077Z,10.42
2023-01-17T13:29:57.060Z,10.39
2023-01-17T13:35:59.780Z,10.47
2023-01-17T13:42:11.508Z,10.29
2023-01-17T13:48:18.215Z,10.26
2023-01-17T13:54:34.177Z,10.32
2023-01-17T14:00:43.180Z,10.29
2023-01-17T14:06:52.953Z,9.97
2023-01-17T14:12:56.375Z,9.78
2023-01-17T14:18:59.144Z,9.69
2023-01-17T14:25:04.302Z,9.56
2023-01-17T14:31:10.209Z,9.38
2023-01-17T14:37:36.486Z,9.27
2023-01-17T14:43:42.362Z,9.16
2023-01-17T14:49:49.115Z,9.07
2023-01-17T14:55:58.090Z,8.94
2023-01-17T15:02:08.028Z,8.75
2023-01-17T15:08:19.402Z,8.53
2023-01-17T15:14:38.740Z,8.29
2023-01-17T15:20:47.263Z,8.14
2023-01-17T15:26:53.441Z,7.88
2023-01-17T15:32:58.707Z,7.66
2023-01-17T15:39:23.810Z,7.52
2023-01-17T15:45:31.926Z,7.42
2023-01-17T15:51:38.988Z,7.34
2023-01-17T15:57:47.510Z,7.21
2023-01-17T16:03:54.624Z,6.89
2023-01-17T16:10:35.678Z,7.03
2023-01-17T16:16:40.982Z,7.04
2023-01-17T16:22:43.978Z,6.94
2023-01-17T16:28:47.302Z,6.86
2023-01-17T16:34:50.297Z,6.83
2023-01-17T16:40:53.997Z,6.87
2023-01-17T16:47:01.150Z,6.90
2023-01-17T16:53:03.993Z,6.89
2023-01-17T16:59:06.777Z,6.87
2023-01-17T17:05:10.528Z,6.71
2023-01-17T17:11:19.305Z,6.62
2023-01-17T17:17:22.008Z,6.71
2023-01-17T17:23:25.344Z,6.69
2023-01-17T17:29:28.092Z,6.75
2023-01-17T17:35:33.813Z,7.05
2023-01-17T17:41:39.269Z,6.88
2023-01-17T17:47:44.495Z,6.77
2023-01-17T17:53:47.806Z,6.74
2023-01-17T17:59:57.011Z,6.89
2023-01-17T18:06:04.812Z,6.88
2023-01-17T18:12:08.011Z,6.81
2023-01-17T18:18:10.887Z,6.69
2023-01-17T18:24:23.254Z,6.68
2023-01-17T18:30:26.675Z,6.86
2023-01-17T18:36:32.085Z,6.99
2023-01-17T18:42:35.058Z,6.96
2023-01-17T18:48:38.866Z,6.98
2023-01-17T18:54:41.921Z,6.89
2023-01-17T19:00:44.978Z,7.01
2023-01-17T19:06:48.971Z,6.82
2023-01-17T19:12:52.137Z,7.10
2023-01-17T19:18:56.688Z,7.04
2023-01-17T19:24:59.659Z,7.17
2023-01-17T19:31:11.549Z,6.83
2023-01-17T19:37:15.042Z,6.47
2023-01-17T19:43:28.967Z,6.87
2023-01-17T19:49:33.899Z,7.28
2023-01-17T19:55:39.921Z,7.04
2023-01-17T20:01:43.477Z,6.73
2023-01-17T20:07:46.631Z,6.41
2023-01-17T20:13:55.257Z,6.66
2023-01-17T20:20:02.121Z,6.91
2023-01-17T20:26:06.131Z,7.00
2023-01-17T20:32:10.431Z,6.90
2023-01-17T20:38:13.309Z,6.90
2023-01-17T20:44:20.270Z,6.77
2023-01-17T20:50:27.664Z,6.78
2023-01-17T20:56:35.235Z,7.07
2023-01-17T21:02:39.234Z,6.84
2023-01-17T21:08:44.740Z,6.95
2023-01-17T21:14:48.757Z,7.24
2023-01-17T21:20:51.984Z,7.26
2023-01-17T21:26:55.164Z,6.92
2023-01-17T21:32:58.534Z,6.79
2023-01-17T21:39:08.034Z,6.90
2023-01-17T21:45:16.642Z,6.75
2023-01-17T21:51:19.778Z,6.57
2023-01-17T21:57:50.588Z,6.66
2023-01-17T22:04:01.164Z,6.73
2023-01-17T22:10:04.240Z,6.92
2023-01-17T22:16:10.647Z,6.61
2023-01-17T22:22:13.839Z,6.73
2023-01-17T22:28:16.895Z,6.83
2023-01-17T22:34:19.965Z,7.09
2023-01-17T22:40:23.551Z,7.10
2023-01-17T22:46:29.023Z,7.16
2023-01-17T22:52:32.314Z,6.88
2023-01-17T22:58:35.879Z,6.89
2023-01-17T23:04:41.974Z,6.81
2023-01-17T23:11:10.307Z,6.96
2023-01-17T23:17:31.663Z,6.64
2023-01-17T23:23:34.757Z,6.46
2023-01-17T23:29:37.951Z,6.37
2023-01-17T23:35:43.004Z,6.19
2023-01-17T23:42:07.165Z,6.09
2023-01-17T23:48:10.752Z,6.21
2023-01-17T23:54:13.982Z,6.25
